sensor_id;sensor_type;location;lat;lon;timestamp;P1;durP1;ratioP1;P2;durP2;ratioP2
43813;SDS011;29669;55.706;37.656;2022-09-30T00:02:33;15.32;;;9.38;;
43813;SDS011;29669;55.706;37.656;2022-09-30T00:05:21;14.75;;;8.80;;
43813;SDS011;29669;55.706;37.656;2022-09-30T00:08:09;16.08;;;8.85;;
43813;SDS011;29669;55.706;37.656;2022-09-30T00:11:01;15.63;;;9.05;;
43813;SDS011;29669;55.706;37.656;2022-09-30T00:13:51;13.95;;;8.10;;
43813;SDS011;29669;55.706;37.656;2022-09-30T00:16:40;14.35;;;9.30;;
43813;SDS011;29669;55.706;37.656;2022-09-30T00:19:28;13.43;;;8.45;;
43813;SDS011;29669;55.706;37.656;2022-09-30T00:22:16;18.80;;;9.63;;
43813;SDS011;29669;55.706;37.656;2022-09-30T00:25:04;13.45;;;9.05;;
43813;SDS011;29669;55.706;37.656;2022-09-30T00:27:53;16.83;;;9.90;;
43813;SDS011;29669;55.706;37.656;2022-09-30T00:30:41;20.38;;;10.00;;
43813;SDS011;29669;55.706;37.656;2022-09-30T00:33:30;18.05;;;10.13;;
43813;SDS011;29669;55.706;37.656;2022-09-30T00:36:19;16.70;;;10.90;;
43813;SDS011;29669;55.706;37.656;2022-09-30T00:39:08;24.38;;;11.45;;
43813;SDS011;29669;55.706;37.656;2022-09-30T00:42:00;20.40;;;10.30;;
43813;SDS011;29669;55.706;37.656;2022-09-30T00:44:52;24.55;;;10.52;;
43813;SDS011;29669;55.706;37.656;2022-09-30T00:50:49;16.45;;;11.00;;
43813;SDS011;29669;55.706;37.656;2022-09-30T00:53:46;20.33;;;10.15;;
43813;SDS011;29669;55.706;37.656;2022-09-30T00:56:46;16.73;;;10.02;;
43813;SDS011;29669;55.706;37.656;2022-09-30T00:59:45;17.00;;;9.70;;
43813;SDS011;29669;55.706;37.656;2022-09-30T01:02:37;16.00;;;8.77;;
43813;SDS011;29669;55.706;37.656;2022-09-30T01:05:25;17.35;;;9.68;;
43813;SDS011;29669;55.706;37.656;2022-09-30T01:08:14;22.23;;;10.95;;
43813;SDS011;29669;55.706;37.656;2022-09-30T01:11:04;18.98;;;9.75;;
43813;SDS011;29669;55.706;37.656;2022-09-30T01:13:58;19.23;;;10.20;;
43813;SDS011;29669;55.706;37.656;2022-09-30T01:23:01;18.63;;;9.90;;
43813;SDS011;29669;55.706;37.656;2022-09-30T01:33:06;16.58;;;9.32;;
43813;SDS011;29669;55.706;37.656;2022-09-30T01:39:26;15.07;;;10.23;;
43813;SDS011;29669;55.706;37.656;2022-09-30T01:42:32;15.38;;;9.20;;
43813;SDS011;29669;55.706;37.656;2022-09-30T01:45:43;13.80;;;9.13;;
43813;SDS011;29669;55.706;37.656;2022-09-30T01:51:37;19.52;;;10.75;;
43813;SDS011;29669;55.706;37.656;2022-09-30T01:54:45;19.50;;;10.25;;
43813;SDS011;29669;55.706;37.656;2022-09-30T01:57:43;16.88;;;11.00;;
43813;SDS011;29669;55.706;37.656;2022-09-30T02:00:39;16.08;;;9.85;;
43813;SDS011;29669;55.706;37.656;2022-09-30T02:03:43;18.33;;;10.68;;
43813;SDS011;29669;55.706;37.656;2022-09-30T02:06:41;14.98;;;9.23;;
43813;SDS011;29669;55.706;37.656;2022-09-30T02:09:47;16.70;;;10.15;;
43813;SDS011;29669;55.706;37.656;2022-09-30T02:12:40;17.90;;;10.50;;
43813;SDS011;29669;55.706;37.656;2022-09-30T02:15:35;15.25;;;9.07;;
43813;SDS011;29669;55.706;37.656;2022-09-30T02:24:15;14.50;;;8.82;;
43813;SDS011;29669;55.706;37.656;2022-09-30T02:27:11;15.35;;;9.73;;
43813;SDS011;29669;55.706;37.656;2022-09-30T02:30:07;17.52;;;9.50;;
43813;SDS011;29669;55.706;37.656;2022-09-30T02:32:59;16.80;;;10.48;;
43813;SDS011;29669;55.706;37.656;2022-09-30T02:35:58;16.00;;;9.27;;
43813;SDS011;29669;55.706;37.656;2022-09-30T02:38:56;15.10;;;9.07;;
43813;SDS011;29669;55.706;37.656;2022-09-30T02:41:54;22.60;;;9.40;;
43813;SDS011;29669;55.706;37.656;2022-09-30T02:44:47;20.65;;;10.00;;
43813;SDS011;29669;55.706;37.656;2022-09-30T02:50:59;20.65;;;9.88;;
43813;SDS011;29669;55.706;37.656;2022-09-30T02:54:34;14.93;;;9.18;;
43813;SDS011;29669;55.706;37.656;2022-09-30T03:00:33;18.02;;;9.75;;
43813;SDS011;29669;55.706;37.656;2022-09-30T03:03:29;19.05;;;9.80;;
43813;SDS011;29669;55.706;37.656;2022-09-30T03:06:22;20.13;;;9.88;;
43813;SDS011;29669;55.706;37.656;2022-09-30T03:09:10;17.55;;;9.80;;
43813;SDS011;29669;55.706;37.656;2022-09-30T03:12:00;15.70;;;9.90;;
43813;SDS011;29669;55.706;37.656;2022-09-30T03:27:06;14.65;;;9.05;;
43813;SDS011;29669;55.706;37.656;2022-09-30T03:33:03;16.80;;;9.65;;
43813;SDS011;29669;55.706;37.656;2022-09-30T03:36:00;13.55;;;8.32;;
43813;SDS011;29669;55.706;37.656;2022-09-30T03:39:04;15.88;;;9.27;;
43813;SDS011;29669;55.706;37.656;2022-09-30T03:45:34;16.40;;;9.73;;
43813;SDS011;29669;55.706;37.656;2022-09-30T03:48:27;13.35;;;8.35;;
43813;SDS011;29669;55.706;37.656;2022-09-30T03:51:18;15.25;;;8.60;;
43813;SDS011;29669;55.706;37.656;2022-09-30T03:54:08;13.52;;;8.15;;
43813;SDS011;29669;55.706;37.656;2022-09-30T03:56:58;15.48;;;9.00;;
43813;SDS011;29669;55.706;37.656;2022-09-30T03:59:50;14.05;;;8.98;;
43813;SDS011;29669;55.706;37.656;2022-09-30T04:02:38;15.80;;;9.07;;
43813;SDS011;29669;55.706;37.656;2022-09-30T04:05:27;14.68;;;8.15;;
43813;SDS011;29669;55.706;37.656;2022-09-30T04:08:15;15.00;;;8.23;;
43813;SDS011;29669;55.706;37.656;2022-09-30T04:11:04;17.60;;;9.07;;
43813;SDS011;29669;55.706;37.656;2022-09-30T04:13:54;16.55;;;8.98;;
43813;SDS011;29669;55.706;37.656;2022-09-30T04:16:43;10.65;;;6.93;;
43813;SDS011;29669;55.706;37.656;2022-09-30T04:19:32;12.23;;;8.07;;
43813;SDS011;29669;55.706;37.656;2022-09-30T04:22:29;10.90;;;7.72;;
43813;SDS011;29669;55.706;37.656;2022-09-30T04:25:17;14.90;;;9.02;;
43813;SDS011;29669;55.706;37.656;2022-09-30T04:28:06;13.35;;;8.38;;
43813;SDS011;29669;55.706;37.656;2022-09-30T04:30:57;16.73;;;8.38;;
43813;SDS011;29669;55.706;37.656;2022-09-30T04:33:46;14.23;;;8.30;;
43813;SDS011;29669;55.706;37.656;2022-09-30T04:36:34;14.52;;;9.23;;
43813;SDS011;29669;55.706;37.656;2022-09-30T04:39:22;17.70;;;8.25;;
43813;SDS011;29669;55.706;37.656;2022-09-30T04:42:11;13.82;;;7.90;;
43813;SDS011;29669;55.706;37.656;2022-09-30T04:44:59;14.38;;;8.80;;
43813;SDS011;29669;55.706;37.656;2022-09-30T04:47:49;14.35;;;9.10;;
43813;SDS011;29669;55.706;37.656;2022-09-30T04:50:37;15.85;;;9.73;;
43813;SDS011;29669;55.706;37.656;2022-09-30T04:53:26;13.27;;;8.68;;
43813;SDS011;29669;55.706;37.656;2022-09-30T04:56:15;16.40;;;9.40;;
43813;SDS011;29669;55.706;37.656;2022-09-30T04:59:04;13.35;;;9.65;;
43813;SDS011;29669;55.706;37.656;2022-09-30T05:01:52;16.30;;;9.23;;
43813;SDS011;29669;55.706;37.656;2022-09-30T05:04:40;12.93;;;9.05;;
43813;SDS011;29669;55.706;37.656;2022-09-30T05:07:29;15.60;;;8.88;;
43813;SDS011;29669;55.706;37.656;2022-09-30T05:10:18;16.30;;;9.40;;
43813;SDS011;29669;55.706;37.656;2022-09-30T05:13:07;11.68;;;9.18;;
43813;SDS011;29669;55.706;37.656;2022-09-30T05:15:55;15.02;;;9.93;;
43813;SDS011;29669;55.706;37.656;2022-09-30T05:18:44;14.25;;;9.00;;
43813;SDS011;29669;55.706;37.656;2022-09-30T05:21:33;18.05;;;10.20;;
43813;SDS011;29669;55.706;37.656;2022-09-30T05:24:22;14.82;;;9.23;;
43813;SDS011;29669;55.706;37.656;2022-09-30T05:27:11;14.48;;;9.43;;
43813;SDS011;29669;55.706;37.656;2022-09-30T05:29:59;14.85;;;8.85;;
43813;SDS011;29669;55.706;37.656;2022-09-30T05:40:23;12.55;;;8.57;;
43813;SDS011;29669;55.706;37.656;2022-09-30T05:43:42;13.35;;;8.20;;
43813;SDS011;29669;55.706;37.656;2022-09-30T05:46:53;13.15;;;8.35;;
43813;SDS011;29669;55.706;37.656;2022-09-30T05:49:42;16.55;;;8.75;;
43813;SDS011;29669;55.706;37.656;2022-09-30T05:52:42;13.88;;;8.43;;
43813;SDS011;29669;55.706;37.656;2022-09-30T05:55:31;11.75;;;7.70;;
43813;SDS011;29669;55.706;37.656;2022-09-30T05:58:25;14.93;;;7.57;;
43813;SDS011;29669;55.706;37.656;2022-09-30T06:01:14;16.73;;;8.23;;
43813;SDS011;29669;55.706;37.656;2022-09-30T06:04:03;12.63;;;7.30;;
43813;SDS011;29669;55.706;37.656;2022-09-30T06:06:51;15.10;;;7.57;;
43813;SDS011;29669;55.706;37.656;2022-09-30T06:13:53;11.70;;;7.25;;
43813;SDS011;29669;55.706;37.656;2022-09-30T06:16:45;16.50;;;8.05;;
43813;SDS011;29669;55.706;37.656;2022-09-30T06:20:30;16.92;;;8.23;;
43813;SDS011;29669;55.706;37.656;2022-09-30T06:23:14;23.38;;;8.10;;
43813;SDS011;29669;55.706;37.656;2022-09-30T06:26:03;19.08;;;7.35;;
43813;SDS011;29669;55.706;37.656;2022-09-30T06:28:53;18.92;;;7.82;;
43813;SDS011;29669;55.706;37.656;2022-09-30T06:31:42;14.63;;;7.78;;
43813;SDS011;29669;55.706;37.656;2022-09-30T06:34:33;17.90;;;8.30;;
43813;SDS011;29669;55.706;37.656;2022-09-30T06:38:46;14.80;;;7.57;;
43813;SDS011;29669;55.706;37.656;2022-09-30T06:42:03;11.57;;;7.15;;
43813;SDS011;29669;55.706;37.656;2022-09-30T06:44:55;12.93;;;6.93;;
43813;SDS011;29669;55.706;37.656;2022-09-30T06:47:55;12.50;;;6.15;;
43813;SDS011;29669;55.706;37.656;2022-09-30T06:52:02;15.15;;;8.07;;
43813;SDS011;29669;55.706;37.656;2022-09-30T06:54:54;9.10;;;7.20;;
43813;SDS011;29669;55.706;37.656;2022-09-30T06:57:44;13.38;;;7.00;;
43813;SDS011;29669;55.706;37.656;2022-09-30T07:00:34;12.80;;;7.82;;
43813;SDS011;29669;55.706;37.656;2022-09-30T07:03:24;20.85;;;7.32;;
43813;SDS011;29669;55.706;37.656;2022-09-30T07:06:16;17.65;;;7.15;;
43813;SDS011;29669;55.706;37.656;2022-09-30T07:09:05;11.85;;;7.28;;
43813;SDS011;29669;55.706;37.656;2022-09-30T07:11:54;12.30;;;7.25;;
43813;SDS011;29669;55.706;37.656;2022-09-30T07:14:42;20.38;;;7.93;;
43813;SDS011;29669;55.706;37.656;2022-09-30T07:17:31;14.60;;;7.13;;
43813;SDS011;29669;55.706;37.656;2022-09-30T07:20:19;19.05;;;7.28;;
43813;SDS011;29669;55.706;37.656;2022-09-30T07:23:08;13.65;;;7.47;;
43813;SDS011;29669;55.706;37.656;2022-09-30T07:25:59;16.95;;;7.25;;
43813;SDS011;29669;55.706;37.656;2022-09-30T07:28:51;14.15;;;7.88;;
43813;SDS011;29669;55.706;37.656;2022-09-30T07:31:40;16.77;;;7.53;;
43813;SDS011;29669;55.706;37.656;2022-09-30T07:34:29;16.50;;;7.28;;
43813;SDS011;29669;55.706;37.656;2022-09-30T07:37:17;15.13;;;8.82;;
43813;SDS011;29669;55.706;37.656;2022-09-30T07:40:07;14.02;;;7.97;;
43813;SDS011;29669;55.706;37.656;2022-09-30T07:42:56;14.35;;;7.22;;
43813;SDS011;29669;55.706;37.656;2022-09-30T07:45:46;20.13;;;7.97;;
43813;SDS011;29669;55.706;37.656;2022-09-30T07:48:36;14.40;;;7.10;;
43813;SDS011;29669;55.706;37.656;2022-09-30T07:51:34;12.48;;;7.97;;
43813;SDS011;29669;55.706;37.656;2022-09-30T07:54:25;14.45;;;7.20;;
43813;SDS011;29669;55.706;37.656;2022-09-30T07:57:15;15.60;;;7.63;;
43813;SDS011;29669;55.706;37.656;2022-09-30T08:00:04;16.73;;;7.88;;
43813;SDS011;29669;55.706;37.656;2022-09-30T08:03:13;15.25;;;7.70;;
43813;SDS011;29669;55.706;37.656;2022-09-30T08:06:05;17.20;;;8.18;;
43813;SDS011;29669;55.706;37.656;2022-09-30T08:08:54;12.52;;;7.28;;
43813;SDS011;29669;55.706;37.656;2022-09-30T08:11:43;14.43;;;7.43;;
43813;SDS011;29669;55.706;37.656;2022-09-30T08:14:33;12.82;;;8.10;;
43813;SDS011;29669;55.706;37.656;2022-09-30T08:17:21;16.35;;;8.02;;
43813;SDS011;29669;55.706;37.656;2022-09-30T08:20:10;12.30;;;8.07;;
43813;SDS011;29669;55.706;37.656;2022-09-30T08:23:00;16.48;;;8.55;;
43813;SDS011;29669;55.706;37.656;2022-09-30T08:25:49;17.25;;;10.10;;
43813;SDS011;29669;55.706;37.656;2022-09-30T08:31:51;13.88;;;9.35;;
43813;SDS011;29669;55.706;37.656;2022-09-30T08:34:40;12.93;;;7.78;;
43813;SDS011;29669;55.706;37.656;2022-09-30T08:37:29;13.95;;;8.13;;
43813;SDS011;29669;55.706;37.656;2022-09-30T08:40:20;13.57;;;8.70;;
43813;SDS011;29669;55.706;37.656;2022-09-30T08:46:08;15.90;;;9.07;;
43813;SDS011;29669;55.706;37.656;2022-09-30T08:52:08;11.77;;;8.48;;
43813;SDS011;29669;55.706;37.656;2022-09-30T08:55:19;16.13;;;9.15;;
43813;SDS011;29669;55.706;37.656;2022-09-30T09:01:19;12.23;;;8.57;;
43813;SDS011;29669;55.706;37.656;2022-09-30T09:04:16;13.90;;;9.30;;
43813;SDS011;29669;55.706;37.656;2022-09-30T09:13:17;16.23;;;10.15;;
43813;SDS011;29669;55.706;37.656;2022-09-30T09:16:23;15.80;;;9.40;;
43813;SDS011;29669;55.706;37.656;2022-09-30T09:19:22;18.90;;;10.10;;
43813;SDS011;29669;55.706;37.656;2022-09-30T09:22:25;20.75;;;9.52;;
43813;SDS011;29669;55.706;37.656;2022-09-30T09:25:16;17.73;;;8.90;;
43813;SDS011;29669;55.706;37.656;2022-09-30T09:28:21;20.02;;;9.88;;
43813;SDS011;29669;55.706;37.656;2022-09-30T09:31:14;17.70;;;9.50;;
43813;SDS011;29669;55.706;37.656;2022-09-30T09:34:09;19.52;;;10.10;;
43813;SDS011;29669;55.706;37.656;2022-09-30T09:37:08;19.92;;;10.00;;
43813;SDS011;29669;55.706;37.656;2022-09-30T09:47:00;19.00;;;10.18;;
43813;SDS011;29669;55.706;37.656;2022-09-30T09:50:01;15.80;;;10.02;;
43813;SDS011;29669;55.706;37.656;2022-09-30T09:56:10;21.48;;;12.80;;
43813;SDS011;29669;55.706;37.656;2022-09-30T09:59:09;23.65;;;11.48;;
43813;SDS011;29669;55.706;37.656;2022-09-30T10:02:23;18.95;;;9.82;;
43813;SDS011;29669;55.706;37.656;2022-09-30T10:05:23;26.55;;;11.70;;
43813;SDS011;29669;55.706;37.656;2022-09-30T10:08:18;26.27;;;10.88;;
43813;SDS011;29669;55.706;37.656;2022-09-30T10:11:26;18.40;;;10.55;;
43813;SDS011;29669;55.706;37.656;2022-09-30T10:14:16;22.52;;;11.57;;
43813;SDS011;29669;55.706;37.656;2022-09-30T10:17:07;21.08;;;10.73;;
43813;SDS011;29669;55.706;37.656;2022-09-30T10:23:08;24.98;;;12.50;;
43813;SDS011;29669;55.706;37.656;2022-09-30T10:26:15;18.63;;;10.90;;
43813;SDS011;29669;55.706;37.656;2022-09-30T10:29:20;18.13;;;10.75;;
43813;SDS011;29669;55.706;37.656;2022-09-30T10:32:13;21.27;;;11.60;;
43813;SDS011;29669;55.706;37.656;2022-09-30T10:35:06;18.13;;;10.93;;
43813;SDS011;29669;55.706;37.656;2022-09-30T10:38:04;18.73;;;11.32;;
43813;SDS011;29669;55.706;37.656;2022-09-30T10:40:52;20.30;;;11.65;;
43813;SDS011;29669;55.706;37.656;2022-09-30T10:43:42;21.70;;;11.70;;
43813;SDS011;29669;55.706;37.656;2022-09-30T10:46:32;21.48;;;11.88;;
43813;SDS011;29669;55.706;37.656;2022-09-30T10:49:35;25.02;;;12.23;;
43813;SDS011;29669;55.706;37.656;2022-09-30T10:52:37;20.67;;;12.13;;
43813;SDS011;29669;55.706;37.656;2022-09-30T10:55:32;19.85;;;11.82;;
43813;SDS011;29669;55.706;37.656;2022-09-30T10:58:36;24.83;;;11.98;;
43813;SDS011;29669;55.706;37.656;2022-09-30T12:00:33;14.45;;;10.38;;
43813;SDS011;29669;55.706;37.656;2022-09-30T12:03:06;18.35;;;9.65;;
43813;SDS011;29669;55.706;37.656;2022-09-30T12:06:32;21.08;;;11.02;;
43813;SDS011;29669;55.706;37.656;2022-09-30T12:09:37;13.30;;;10.32;;
43813;SDS011;29669;55.706;37.656;2022-09-30T12:12:30;20.58;;;10.50;;
43813;SDS011;29669;55.706;37.656;2022-09-30T12:15:19;21.25;;;11.70;;
43813;SDS011;29669;55.706;37.656;2022-09-30T12:18:36;17.80;;;11.43;;
43813;SDS011;29669;55.706;37.656;2022-09-30T12:24:36;19.02;;;10.98;;
43813;SDS011;29669;55.706;37.656;2022-09-30T12:27:38;16.13;;;10.10;;
43813;SDS011;29669;55.706;37.656;2022-09-30T12:30:48;17.00;;;10.65;;
43813;SDS011;29669;55.706;37.656;2022-09-30T12:33:47;18.27;;;11.10;;
43813;SDS011;29669;55.706;37.656;2022-09-30T12:39:52;17.48;;;9.50;;
43813;SDS011;29669;55.706;37.656;2022-09-30T12:49:23;19.90;;;10.65;;
43813;SDS011;29669;55.706;37.656;2022-09-30T12:52:14;14.02;;;9.65;;
43813;SDS011;29669;55.706;37.656;2022-09-30T12:55:15;14.25;;;9.15;;
43813;SDS011;29669;55.706;37.656;2022-09-30T12:58:18;28.98;;;11.40;;
43813;SDS011;29669;55.706;37.656;2022-09-30T13:01:22;17.58;;;9.65;;
43813;SDS011;29669;55.706;37.656;2022-09-30T13:04:28;20.10;;;10.25;;
43813;SDS011;29669;55.706;37.656;2022-09-30T13:11:36;13.88;;;9.45;;
43813;SDS011;29669;55.706;37.656;2022-09-30T13:14:36;22.02;;;10.35;;
43813;SDS011;29669;55.706;37.656;2022-09-30T13:17:30;12.63;;;8.40;;
43813;SDS011;29669;55.706;37.656;2022-09-30T13:23:47;15.43;;;9.55;;
43813;SDS011;29669;55.706;37.656;2022-09-30T13:26:36;13.35;;;9.20;;
43813;SDS011;29669;55.706;37.656;2022-09-30T13:29:32;14.80;;;9.48;;
43813;SDS011;29669;55.706;37.656;2022-09-30T13:32:31;12.85;;;9.65;;
43813;SDS011;29669;55.706;37.656;2022-09-30T13:38:31;17.42;;;10.05;;
43813;SDS011;29669;55.706;37.656;2022-09-30T13:41:22;17.25;;;10.00;;
43813;SDS011;29669;55.706;37.656;2022-09-30T13:51:06;14.40;;;9.00;;
43813;SDS011;29669;55.706;37.656;2022-09-30T13:54:04;16.33;;;9.95;;
43813;SDS011;29669;55.706;37.656;2022-09-30T13:56:58;17.50;;;9.90;;
43813;SDS011;29669;55.706;37.656;2022-09-30T13:59:55;15.52;;;10.55;;
43813;SDS011;29669;55.706;37.656;2022-09-30T14:03:09;16.05;;;10.63;;
43813;SDS011;29669;55.706;37.656;2022-09-30T14:06:16;16.92;;;10.85;;
43813;SDS011;29669;55.706;37.656;2022-09-30T14:12:14;20.23;;;9.95;;
43813;SDS011;29669;55.706;37.656;2022-09-30T14:21:42;14.02;;;9.93;;
43813;SDS011;29669;55.706;37.656;2022-09-30T14:24:35;15.70;;;9.98;;
43813;SDS011;29669;55.706;37.656;2022-09-30T14:27:42;14.57;;;10.00;;
43813;SDS011;29669;55.706;37.656;2022-09-30T14:30:46;13.32;;;10.00;;
43813;SDS011;29669;55.706;37.656;2022-09-30T14:33:55;22.33;;;10.43;;
43813;SDS011;29669;55.706;37.656;2022-09-30T14:36:45;17.13;;;10.50;;
43813;SDS011;29669;55.706;37.656;2022-09-30T14:39:37;19.25;;;10.23;;
43813;SDS011;29669;55.706;37.656;2022-09-30T14:42:29;18.83;;;10.98;;
43813;SDS011;29669;55.706;37.656;2022-09-30T14:45:22;20.17;;;11.35;;
43813;SDS011;29669;55.706;37.656;2022-09-30T14:48:15;20.75;;;11.43;;
43813;SDS011;29669;55.706;37.656;2022-09-30T14:51:09;18.13;;;9.95;;
43813;SDS011;29669;55.706;37.656;2022-09-30T14:54:01;18.35;;;10.75;;
43813;SDS011;29669;55.706;37.656;2022-09-30T14:56:51;17.08;;;10.65;;
43813;SDS011;29669;55.706;37.656;2022-09-30T14:59:41;20.95;;;10.15;;
43813;SDS011;29669;55.706;37.656;2022-09-30T15:02:33;19.67;;;10.52;;
43813;SDS011;29669;55.706;37.656;2022-09-30T15:05:25;15.05;;;10.32;;
43813;SDS011;29669;55.706;37.656;2022-09-30T15:08:16;20.25;;;11.40;;
43813;SDS011;29669;55.706;37.656;2022-09-30T15:11:07;17.80;;;11.00;;
43813;SDS011;29669;55.706;37.656;2022-09-30T15:17:15;15.98;;;10.93;;
43813;SDS011;29669;55.706;37.656;2022-09-30T15:20:43;20.42;;;11.93;;
43813;SDS011;29669;55.706;37.656;2022-09-30T15:23:26;17.25;;;11.68;;
43813;SDS011;29669;55.706;37.656;2022-09-30T15:26:43;20.05;;;11.20;;
43813;SDS011;29669;55.706;37.656;2022-09-30T15:29:35;17.48;;;12.23;;
43813;SDS011;29669;55.706;37.656;2022-09-30T15:32:25;18.17;;;12.35;;
43813;SDS011;29669;55.706;37.656;2022-09-30T15:35:23;19.08;;;11.77;;
43813;SDS011;29669;55.706;37.656;2022-09-30T15:38:22;19.75;;;11.93;;
43813;SDS011;29669;55.706;37.656;2022-09-30T15:41:13;19.58;;;11.82;;
43813;SDS011;29669;55.706;37.656;2022-09-30T15:44:02;21.00;;;12.43;;
43813;SDS011;29669;55.706;37.656;2022-09-30T15:47:01;18.27;;;13.48;;
43813;SDS011;29669;55.706;37.656;2022-09-30T15:49:56;21.67;;;13.55;;
43813;SDS011;29669;55.706;37.656;2022-09-30T15:52:44;22.80;;;12.90;;
43813;SDS011;29669;55.706;37.656;2022-09-30T15:55:34;27.23;;;13.43;;
43813;SDS011;29669;55.706;37.656;2022-09-30T16:01:23;19.88;;;13.85;;
43813;SDS011;29669;55.706;37.656;2022-09-30T16:07:13;21.73;;;14.82;;
43813;SDS011;29669;55.706;37.656;2022-09-30T16:10:13;25.02;;;13.63;;
43813;SDS011;29669;55.706;37.656;2022-09-30T16:13:07;25.40;;;14.85;;
43813;SDS011;29669;55.706;37.656;2022-09-30T16:16:03;26.92;;;14.77;;
43813;SDS011;29669;55.706;37.656;2022-09-30T16:19:02;23.25;;;14.40;;
43813;SDS011;29669;55.706;37.656;2022-09-30T16:22:55;20.60;;;13.75;;
43813;SDS011;29669;55.706;37.656;2022-09-30T16:25:43;23.77;;;14.45;;
43813;SDS011;29669;55.706;37.656;2022-09-30T16:28:33;25.33;;;14.95;;
43813;SDS011;29669;55.706;37.656;2022-09-30T16:31:22;25.50;;;15.73;;
43813;SDS011;29669;55.706;37.656;2022-09-30T16:34:22;25.77;;;15.32;;
43813;SDS011;29669;55.706;37.656;2022-09-30T16:37:16;29.00;;;16.02;;
43813;SDS011;29669;55.706;37.656;2022-09-30T16:40:15;25.67;;;15.65;;
43813;SDS011;29669;55.706;37.656;2022-09-30T16:43:14;34.40;;;15.65;;
43813;SDS011;29669;55.706;37.656;2022-09-30T16:46:04;27.40;;;15.35;;
43813;SDS011;29669;55.706;37.656;2022-09-30T16:48:54;23.80;;;14.48;;
43813;SDS011;29669;55.706;37.656;2022-09-30T16:51:43;25.17;;;14.88;;
43813;SDS011;29669;55.706;37.656;2022-09-30T16:54:32;23.48;;;14.70;;
43813;SDS011;29669;55.706;37.656;2022-09-30T16:57:22;28.05;;;16.88;;
43813;SDS011;29669;55.706;37.656;2022-09-30T17:00:13;22.17;;;14.65;;
43813;SDS011;29669;55.706;37.656;2022-09-30T17:03:06;23.25;;;14.48;;
43813;SDS011;29669;55.706;37.656;2022-09-30T17:05:58;23.70;;;14.82;;
43813;SDS011;29669;55.706;37.656;2022-09-30T17:08:47;29.00;;;15.32;;
43813;SDS011;29669;55.706;37.656;2022-09-30T17:11:36;22.55;;;13.82;;
43813;SDS011;29669;55.706;37.656;2022-09-30T17:14:32;19.85;;;12.93;;
43813;SDS011;29669;55.706;37.656;2022-09-30T17:17:20;20.55;;;12.95;;
43813;SDS011;29669;55.706;37.656;2022-09-30T17:20:12;20.15;;;13.25;;
43813;SDS011;29669;55.706;37.656;2022-09-30T17:23:04;25.65;;;13.40;;
43813;SDS011;29669;55.706;37.656;2022-09-30T17:25:57;24.90;;;14.65;;
43813;SDS011;29669;55.706;37.656;2022-09-30T17:28:49;26.58;;;16.05;;
43813;SDS011;29669;55.706;37.656;2022-09-30T17:31:42;22.27;;;14.27;;
43813;SDS011;29669;55.706;37.656;2022-09-30T17:34:35;25.10;;;13.75;;
43813;SDS011;29669;55.706;37.656;2022-09-30T17:37:28;24.90;;;14.60;;
43813;SDS011;29669;55.706;37.656;2022-09-30T17:40:19;18.55;;;12.52;;
43813;SDS011;29669;55.706;37.656;2022-09-30T17:43:27;22.05;;;13.70;;
43813;SDS011;29669;55.706;37.656;2022-09-30T17:57:06;18.00;;;11.52;;
43813;SDS011;29669;55.706;37.656;2022-09-30T17:59:58;21.20;;;12.52;;
43813;SDS011;29669;55.706;37.656;2022-09-30T18:02:48;19.73;;;11.43;;
43813;SDS011;29669;55.706;37.656;2022-09-30T18:05:39;22.95;;;13.43;;
43813;SDS011;29669;55.706;37.656;2022-09-30T18:08:33;24.30;;;11.48;;
43813;SDS011;29669;55.706;37.656;2022-09-30T18:11:26;21.85;;;11.48;;
43813;SDS011;29669;55.706;37.656;2022-09-30T18:15:32;24.70;;;11.68;;
43813;SDS011;29669;55.706;37.656;2022-09-30T18:18:42;20.20;;;11.85;;
43813;SDS011;29669;55.706;37.656;2022-09-30T18:21:35;19.10;;;12.82;;
43813;SDS011;29669;55.706;37.656;2022-09-30T18:33:37;17.42;;;11.73;;
43813;SDS011;29669;55.706;37.656;2022-09-30T18:36:31;18.73;;;11.35;;
43813;SDS011;29669;55.706;37.656;2022-09-30T18:39:24;18.23;;;10.85;;
43813;SDS011;29669;55.706;37.656;2022-09-30T18:42:15;20.42;;;11.45;;
43813;SDS011;29669;55.706;37.656;2022-09-30T18:45:08;18.30;;;11.68;;
43813;SDS011;29669;55.706;37.656;2022-09-30T18:47:59;25.75;;;12.38;;
43813;SDS011;29669;55.706;37.656;2022-09-30T18:50:51;18.20;;;11.35;;
43813;SDS011;29669;55.706;37.656;2022-09-30T18:54:13;20.30;;;11.95;;
43813;SDS011;29669;55.706;37.656;2022-09-30T18:57:04;18.85;;;11.80;;
43813;SDS011;29669;55.706;37.656;2022-09-30T18:59:57;18.02;;;11.48;;
43813;SDS011;29669;55.706;37.656;2022-09-30T19:03:32;18.23;;;12.30;;
43813;SDS011;29669;55.706;37.656;2022-09-30T19:06:21;20.52;;;12.27;;
43813;SDS011;29669;55.706;37.656;2022-09-30T19:09:09;18.98;;;11.73;;
43813;SDS011;29669;55.706;37.656;2022-09-30T19:12:06;19.30;;;13.32;;
43813;SDS011;29669;55.706;37.656;2022-09-30T19:14:55;21.67;;;12.82;;
43813;SDS011;29669;55.706;37.656;2022-09-30T19:17:43;17.50;;;12.00;;
43813;SDS011;29669;55.706;37.656;2022-09-30T19:20:54;18.02;;;12.38;;
43813;SDS011;29669;55.706;37.656;2022-09-30T19:24:06;20.85;;;13.07;;
43813;SDS011;29669;55.706;37.656;2022-09-30T19:26:57;21.70;;;12.18;;
43813;SDS011;29669;55.706;37.656;2022-09-30T19:29:46;15.73;;;11.32;;
43813;SDS011;29669;55.706;37.656;2022-09-30T19:32:34;17.05;;;11.02;;
43813;SDS011;29669;55.706;37.656;2022-09-30T19:35:24;23.55;;;11.35;;
43813;SDS011;29669;55.706;37.656;2022-09-30T19:38:31;19.83;;;12.48;;
43813;SDS011;29669;55.706;37.656;2022-09-30T19:41:24;21.33;;;12.00;;
43813;SDS011;29669;55.706;37.656;2022-09-30T19:44:18;21.05;;;12.07;;
43813;SDS011;29669;55.706;37.656;2022-09-30T19:47:08;18.63;;;11.57;;
43813;SDS011;29669;55.706;37.656;2022-09-30T19:49:58;18.02;;;12.02;;
43813;SDS011;29669;55.706;37.656;2022-09-30T19:52:47;20.52;;;11.88;;
43813;SDS011;29669;55.706;37.656;2022-09-30T19:55:44;22.23;;;11.40;;
43813;SDS011;29669;55.706;37.656;2022-09-30T19:58:40;20.88;;;11.80;;
43813;SDS011;29669;55.706;37.656;2022-09-30T20:01:39;21.98;;;12.25;;
43813;SDS011;29669;55.706;37.656;2022-09-30T20:04:28;22.30;;;12.80;;
43813;SDS011;29669;55.706;37.656;2022-09-30T20:07:17;20.35;;;13.35;;
43813;SDS011;29669;55.706;37.656;2022-09-30T20:10:05;21.00;;;11.95;;
43813;SDS011;29669;55.706;37.656;2022-09-30T20:12:54;17.30;;;12.00;;
43813;SDS011;29669;55.706;37.656;2022-09-30T20:15:43;23.85;;;13.20;;
43813;SDS011;29669;55.706;37.656;2022-09-30T20:18:37;23.92;;;12.95;;
43813;SDS011;29669;55.706;37.656;2022-09-30T20:21:27;25.77;;;13.85;;
43813;SDS011;29669;55.706;37.656;2022-09-30T20:24:17;22.23;;;13.73;;
43813;SDS011;29669;55.706;37.656;2022-09-30T20:27:05;24.75;;;14.35;;
43813;SDS011;29669;55.706;37.656;2022-09-30T20:29:54;19.63;;;13.02;;
43813;SDS011;29669;55.706;37.656;2022-09-30T20:32:43;24.40;;;12.45;;
43813;SDS011;29669;55.706;37.656;2022-09-30T20:35:34;21.98;;;12.65;;
43813;SDS011;29669;55.706;37.656;2022-09-30T20:38:23;19.90;;;12.73;;
43813;SDS011;29669;55.706;37.656;2022-09-30T20:41:12;16.70;;;12.00;;
43813;SDS011;29669;55.706;37.656;2022-09-30T20:44:04;19.65;;;12.60;;